createdAt,value
2022-10-26T00:03:01.073Z,11.53
2022-10-26T00:08:04.047Z,11.43
2022-10-26T00:13:10.821Z,11.36
2022-10-26T00:18:13.387Z,11.31
2022-10-26T00:23:16.138Z,11.28
2022-10-26T00:28:18.847Z,11.27
2022-10-26T00:33:21.555Z,11.25
2022-10-26T00:38:24.722Z,11.22
2022-10-26T00:43:27.356Z,11.15
2022-10-26T00:48:34.522Z,11.09
2022-10-26T00:53:38.013Z,11.05
2022-10-26T00:58:41.156Z,11.04
2022-10-26T01:03:45.045Z,10.99
2022-10-26T01:08:48.547Z,10.95
2022-10-26T01:13:54.405Z,10.97
2022-10-26T01:19:23.438Z,11.04
2022-10-26T01:24:29.090Z,11.08
2022-10-26T01:30:05.939Z,11.06
2022-10-26T01:35:35.461Z,11.02
2022-10-26T01:40:46.570Z,11.07
2022-10-26T01:45:51.820Z,11.07
2022-10-26T01:50:57.632Z,11.02
2022-10-26T01:56:01.784Z,11.00
2022-10-26T02:01:46.242Z,11.02
2022-10-26T02:07:15.473Z,11.04
2022-10-26T02:12:52.799Z,11.07
2022-10-26T02:18:11.998Z,11.03
2022-10-26T02:23:15.494Z,10.98
2022-10-26T02:28:22.693Z,10.98
2022-10-26T02:33:30.634Z,10.94
2022-10-26T02:38:35.690Z,10.93
2022-10-26T02:43:45.039Z,10.91
2022-10-26T02:48:47.809Z,10.88
2022-10-26T02:53:50.423Z,10.88
2022-10-26T02:58:57.983Z,10.90
2022-10-26T03:04:01.096Z,10.93
2022-10-26T03:09:04.379Z,10.90
2022-10-26T03:14:07.064Z,10.86
2022-10-26T03:19:09.787Z,10.84
2022-10-26T03:24:12.480Z,10.83
2022-10-26T03:29:15.263Z,10.82
2022-10-26T03:34:17.974Z,10.80
2022-10-26T03:39:20.676Z,10.81
2022-10-26T03:44:23.645Z,10.79
2022-10-26T03:49:26.357Z,10.74
2022-10-26T03:54:29.032Z,10.74
2022-10-26T03:59:31.689Z,10.77
2022-10-26T04:04:34.447Z,10.77
2022-10-26T04:09:37.217Z,10.72
2022-10-26T04:14:39.881Z,10.66
2022-10-26T04:19:42.586Z,10.65
2022-10-26T04:24:45.320Z,10.63
2022-10-26T04:29:48.052Z,10.60
2022-10-26T04:34:50.903Z,10.54
2022-10-26T04:39:53.668Z,10.53
2022-10-26T04:44:56.544Z,10.52
2022-10-26T04:49:59.168Z,10.42
2022-10-26T04:55:06.043Z,10.38
2022-10-26T05:00:09.500Z,10.37
2022-10-26T05:05:14.273Z,10.42
2022-10-26T05:10:18.019Z,10.48
2022-10-26T05:15:21.324Z,10.51
2022-10-26T05:20:29.658Z,10.49
2022-10-26T05:25:35.578Z,10.44
2022-10-26T05:30:38.309Z,10.48
2022-10-26T05:35:41.248Z,10.47
2022-10-26T05:40:53.017Z,10.43
2022-10-26T05:45:56.059Z,10.45
2022-10-26T05:51:02.838Z,10.55
2022-10-26T05:56:26.837Z,10.64
2022-10-26T06:02:08.732Z,10.73
2022-10-26T06:07:14.541Z,10.76
2022-10-26T06:12:19.626Z,10.85
2022-10-26T06:17:59.425Z,11.09
2022-10-26T06:23:17.348Z,11.37
2022-10-26T06:28:45.064Z,11.52
2022-10-26T06:33:52.582Z,11.59
2022-10-26T06:39:08.965Z,11.76
2022-10-26T06:44:21.228Z,12.03
2022-10-26T06:49:41.651Z,12.21
2022-10-26T06:54:47.343Z,12.35
2022-10-26T07:00:09.308Z,12.50
2022-10-26T07:05:13.345Z,12.68
2022-10-26T07:10:25.226Z,12.78
2022-10-26T07:15:28.337Z,12.94
2022-10-26T07:20:35.408Z,13.04
2022-10-26T07:25:40.570Z,13.09
2022-10-26T07:30:43.846Z,13.13
2022-10-26T07:35:47.045Z,13.13
2022-10-26T07:40:50.661Z,13.14
2022-10-26T07:45:53.456Z,13.22
2022-10-26T07:50:56.225Z,13.32
2022-10-26T07:56:00.140Z,13.30
2022-10-26T08:01:11.713Z,13.22
2022-10-26T08:06:14.784Z,13.25
2022-10-26T08:11:18.152Z,13.26
2022-10-26T08:16:22.263Z,13.26
2022-10-26T08:21:36.067Z,13.28
2022-10-26T08:26:43.166Z,13.24
2022-10-26T08:31:48.841Z,13.29
2022-10-26T08:36:54.062Z,13.39
2022-10-26T08:42:05.725Z,13.46
2022-10-26T08:52:32.895Z,13.60
2022-10-26T08:57:39.663Z,13.76
2022-10-26T09:02:42.404Z,13.99
2022-10-26T09:07:57.407Z,14.20
2022-10-26T09:13:24.869Z,14.33
2022-10-26T09:24:15.843Z,14.56
2022-10-26T09:29:21.339Z,14.62
2022-10-26T09:34:30.106Z,14.56
2022-10-26T09:39:39.590Z,14.49
2022-10-26T09:45:01.599Z,14.40
2022-10-26T09:50:54.152Z,14.35
2022-10-26T09:56:13.218Z,14.45
2022-10-26T10:01:35.532Z,14.71
2022-10-26T10:06:41.411Z,14.89
2022-10-26T10:11:56.921Z,14.96
2022-10-26T10:17:08.627Z,14.88
2022-10-26T10:22:22.500Z,14.85
2022-10-26T10:27:27.741Z,14.95
2022-10-26T10:32:38.640Z,15.12
2022-10-26T10:38:01.031Z,15.21
2022-10-26T10:43:14.340Z,15.27
2022-10-26T10:48:23.389Z,15.34
2022-10-26T10:53:31.448Z,15.35
2022-10-26T10:58:44.197Z,15.42
2022-10-26T11:09:24.310Z,15.65
2022-10-26T11:14:33.276Z,15.85
2022-10-26T11:19:47.483Z,16.02
2022-10-26T11:25:13.505Z,15.97
2022-10-26T11:30:25.759Z,15.85
2022-10-26T11:35:32.353Z,15.73
2022-10-26T11:40:40.913Z,15.50
2022-10-26T11:45:48.006Z,15.37
2022-10-26T11:50:54.395Z,15.35
2022-10-26T11:55:57.575Z,15.44
2022-10-26T12:01:09.413Z,15.46
2022-10-26T12:06:15.393Z,15.59
2022-10-26T12:11:36.312Z,15.63
2022-10-26T12:17:07.253Z,15.46
2022-10-26T12:22:14.103Z,15.41
2022-10-26T12:27:35.416Z,15.60
2022-10-26T12:32:40.309Z,15.65
2022-10-26T12:37:48.495Z,15.43
2022-10-26T12:42:53.942Z,15.24
2022-10-26T12:48:34.675Z,14.97
2022-10-26T12:53:45.808Z,14.75
2022-10-26T12:59:04.991Z,14.67
2022-10-26T13:04:25.530Z,14.48
2022-10-26T13:09:33.511Z,14.36
2022-10-26T13:14:55.626Z,14.15
2022-10-26T13:20:02.640Z,13.95
2022-10-26T13:25:06.536Z,13.82
2022-10-26T13:30:09.211Z,13.76
2022-10-26T13:35:13.741Z,13.69
2022-10-26T13:40:19.641Z,13.73
2022-10-26T13:45:29.706Z,13.89
2022-10-26T13:51:04.408Z,13.96
2022-10-26T13:56:28.486Z,13.82
2022-10-26T14:01:31.735Z,13.71
2022-10-26T14:06:39.512Z,13.57
2022-10-26T14:11:59.222Z,13.42
2022-10-26T14:17:05.409Z,13.28
2022-10-26T14:22:08.256Z,13.10
2022-10-26T14:27:19.190Z,12.91
2022-10-26T14:32:22.988Z,12.74
2022-10-26T14:37:54.250Z,12.54
2022-10-26T14:43:03.777Z,12.34
2022-10-26T14:48:07.780Z,12.19
2022-10-26T14:53:20.019Z,12.03
2022-10-26T14:58:34.097Z,11.88
2022-10-26T15:03:36.846Z,11.75
2022-10-26T15:08:55.945Z,11.59
2022-10-26T15:14:01.499Z,11.44
2022-10-26T15:19:11.079Z,11.32
2022-10-26T15:24:22.147Z,11.18
2022-10-26T15:29:38.680Z,11.04
2022-10-26T15:34:41.455Z,10.92
2022-10-26T15:39:44.154Z,10.82
2022-10-26T15:44:46.883Z,10.71
2022-10-26T15:49:49.568Z,10.63
2022-10-26T15:54:52.245Z,10.56
2022-10-26T15:59:54.915Z,10.49
2022-10-26T16:04:57.637Z,10.44
2022-10-26T16:10:00.555Z,10.37
2022-10-26T16:15:05.879Z,10.29
2022-10-26T16:20:14.670Z,10.22
2022-10-26T16:25:20.122Z,10.13
2022-10-26T16:30:26.990Z,10.05
2022-10-26T16:35:32.372Z,9.95
2022-10-26T16:40:35.149Z,9.91
2022-10-26T16:45:41.021Z,9.88
2022-10-26T16:50:43.774Z,9.82
2022-10-26T16:55:46.548Z,9.73
2022-10-26T17:00:54.979Z,9.65
2022-10-26T17:05:59.867Z,9.58
2022-10-26T17:11:08.965Z,9.52
2022-10-26T17:16:21.474Z,9.49
2022-10-26T17:21:34.510Z,9.45
2022-10-26T17:26:37.535Z,9.41
2022-10-26T17:31:40.335Z,9.39
2022-10-26T17:36:43.150Z,9.37
2022-10-26T17:41:45.899Z,9.36
2022-10-26T17:46:48.582Z,9.33
2022-10-26T17:51:51.407Z,9.31
2022-10-26T17:56:54.089Z,9.32
2022-10-26T18:01:57.074Z,9.26
2022-10-26T18:06:59.914Z,9.17
2022-10-26T18:12:02.741Z,9.13
2022-10-26T18:17:05.436Z,9.11
2022-10-26T18:22:08.142Z,9.09
2022-10-26T18:27:10.870Z,9.06
2022-10-26T18:32:13.612Z,9.04
2022-10-26T18:37:16.302Z,9.05
2022-10-26T18:42:18.993Z,9.06
2022-10-26T18:47:21.661Z,9.04
2022-10-26T18:52:27.254Z,9.00
2022-10-26T18:57:30.075Z,9.00
2022-10-26T19:02:32.790Z,8.98
2022-10-26T19:07:38.022Z,9.00
2022-10-26T19:12:40.706Z,8.95
2022-10-26T19:17:43.452Z,8.87
2022-10-26T19:22:46.182Z,8.84
2022-10-26T19:27:49.223Z,8.76
2022-10-26T19:32:52.771Z,8.68
2022-10-26T19:37:55.866Z,8.67
2022-10-26T19:42:59.168Z,8.63
2022-10-26T19:48:01.859Z,8.61
2022-10-26T19:53:04.565Z,8.60
2022-10-26T19:58:07.275Z,8.56
2022-10-26T20:03:11.859Z,8.56
2022-10-26T20:08:14.546Z,8.60
2022-10-26T20:13:17.240Z,8.63
2022-10-26T20:18:21.295Z,8.62
2022-10-26T20:23:24.615Z,8.64
2022-10-26T20:28:27.397Z,8.70
2022-10-26T20:33:30.156Z,8.76
2022-10-26T20:38:33.177Z,8.81
2022-10-26T20:43:39.462Z,8.82
2022-10-26T20:48:42.920Z,8.79
2022-10-26T20:53:52.754Z,8.78
2022-10-26T20:58:58.960Z,8.80
2022-10-26T21:04:03.525Z,8.82
2022-10-26T21:09:07.671Z,8.83
2022-10-26T21:14:10.356Z,8.82
2022-10-26T21:19:13.853Z,8.84
2022-10-26T21:24:16.649Z,8.83
2022-10-26T21:29:19.371Z,8.80
2022-10-26T21:34:22.090Z,8.80
2022-10-26T21:39:24.785Z,8.79
2022-10-26T21:44:42.776Z,8.78
2022-10-26T21:49:45.562Z,8.76
2022-10-26T21:54:48.279Z,8.73
2022-10-26T21:59:51.216Z,8.72
2022-10-26T22:04:54.030Z,8.75
2022-10-26T22:10:10.231Z,8.77
2022-10-26T22:15:13.901Z,8.80
2022-10-26T22:20:16.687Z,8.89
2022-10-26T22:25:19.391Z,9.02
2022-10-26T22:30:22.099Z,9.18
2022-10-26T22:35:29.582Z,9.36
2022-10-26T22:40:32.831Z,9.51
2022-10-26T22:45:35.508Z,9.62
2022-10-26T22:50:38.902Z,9.71
2022-10-26T22:55:42.207Z,9.80
2022-10-26T23:00:44.965Z,9.90
2022-10-26T23:05:48.448Z,9.97
2022-10-26T23:10:51.228Z,10.05
2022-10-26T23:15:53.952Z,10.08
2022-10-26T23:20:56.616Z,10.10
2022-10-26T23:26:04.703Z,10.16
2022-10-26T23:31:08.136Z,10.21
2022-10-26T23:36:11.313Z,10.24
2022-10-26T23:41:14.587Z,10.30
2022-10-26T23:46:17.385Z,10.33
2022-10-26T23:51:20.166Z,10.37
2022-10-26T23:56:23.027Z,10.45
